This is the latest recevied weather packets stored in our database for station/object IV3CGM-13. If no packets are shown the sender has not sent any weather packets the latest 10 day(s).
| Time | Temp. | Humidity | Pressure | Rain* | Wind** | Luminosity | Snow |
|---|---|---|---|---|---|---|---|
| 1777442639 | 12.78° C | 95% | 1017.5 hPa | 1.27 mm | - | 32 W/m² | - |
| 1777441952 | 12.22° C | 95% | 1017.3 hPa | 0.51 mm | - | 19 W/m² | - |
| 1777441215 | 12.78° C | 92% | 1017.1 hPa | 0 mm | - | 18 W/m² | - |
| 1777440514 | 12.78° C | 91% | 1016.8 hPa | 0 mm | - | 13 W/m² | - |
| 1777439827 | 12.78° C | 89% | 1016.6 hPa | 0 mm | - | 13 W/m² | - |
| 1777439139 | 12.78° C | 91% | 1016.4 hPa | 0 mm | - | 7 W/m² | - |
| 1777438452 | 12.78° C | 89% | 1016.3 hPa | 0 mm | - | 8 W/m² | - |
| 1777437764 | 12.78° C | 88% | 1016.2 hPa | 0 mm | - | 11 W/m² | - |
| 1777437076 | 13.33° C | 83% | 1016.2 hPa | 0 mm | - | 11 W/m² | - |
| 1777436401 | 12.78° C | 90% | 1016.2 hPa | 0 mm | - | 5 W/m² | - |
| 1777435701 | 12.78° C | 92% | 1016 hPa | 0 mm | - | 4 W/m² | - |
| 1777435013 | 12.78° C | 88% | 1016.1 hPa | 0 mm | - | 1 W/m² | - |
| 1777434326 | 12.78° C | 90% | 1016.1 hPa | 0 mm | - | 0 W/m² | - |
| 1777433638 | 13.33° C | 84% | 1016.1 hPa | 0 mm | - | 0 W/m² | - |
| 1777432902 | 13.33° C | 82% | 1016.1 hPa | 0 mm | - | 0 W/m² | - |
| 1777432201 | 13.33° C | 80% | 1016.2 hPa | 0 mm | - | 0 W/m² | - |
| 1777431513 | 14.44° C | 77% | 1016.2 hPa | 0 mm | - | 0 W/m² | - |
| 1777430826 | 13.89° C | 79% | 1016.2 hPa | 0 mm | - | 0 W/m² | - |
| 1777430138 | 13.89° C | 76% | 1016.2 hPa | 0 mm | - | 0 W/m² | - |
| 1777429402 | 13.89° C | 78% | 1016.2 hPa | 0 mm | - | 0 W/m² | - |
| 1777428701 | 14.44° C | 77% | 1016.2 hPa | 0 mm | - | 0 W/m² | - |
| 1777427326 | 14.44° C | 78% | 1016.1 hPa | 0 mm | - | 0 W/m² | - |
| 1777426638 | 13.89° C | 79% | 1016 hPa | 0 mm | - | 0 W/m² | - |
| 1777425902 | 13.89° C | 79% | 1016.1 hPa | 0 mm | - | 0 W/m² | - |
| 1777425201 | 13.89° C | 80% | 1016.2 hPa | 0 mm | - | 0 W/m² | - |
* Rain latest hour (hover to see other rain measurements)
** Current wind speed in m/s (hover to see current wind gust speed)